This is the latest recevied weather packets stored in our database for station/object S51UL-6. If no packets are shown the sender has not sent any weather packets the latest 10 day(s).
| Time | Temp. | Humidity | Pressure | Rain* | Wind** | Luminosity | Snow |
|---|---|---|---|---|---|---|---|
| 1787920959 | 33.33° C | 53% | 1014.5 hPa | 0 mm | - | - | - |
| 1787920660 | 33.33° C | 54% | 1014.4 hPa | 0 mm | - | - | - |
| 1787920360 | 33.33° C | 54% | 1014.5 hPa | 0 mm | - | - | - |
| 1787920060 | 33.33° C | 55% | 1014.4 hPa | 0 mm | - | - | - |
| 1787919160 | 31.67° C | 57% | 1014.7 hPa | 0 mm | - | - | - |
| 1787918860 | 31.11° C | 58% | 1014.5 hPa | 0 mm | - | - | - |
| 1787917360 | 31.11° C | 56% | 1015 hPa | 0 mm | - | - | - |
| 1787917060 | 31.11° C | 55% | 1014.9 hPa | 0 mm | - | - | - |
| 1787916760 | 31.11° C | 54% | 1014.9 hPa | 0 mm | - | - | - |
| 1787916461 | 31.67° C | 52% | 1014.9 hPa | 0 mm | - | - | - |
| 1787915861 | 32.22° C | 54% | 1015.2 hPa | 0 mm | - | - | - |
| 1787915561 | 32.22° C | 52% | 1015.3 hPa | 0 mm | - | - | - |
| 1787915261 | 32.22° C | 53% | 1015 hPa | 0 mm | - | - | - |
| 1787914961 | 32.22° C | 53% | 1015.2 hPa | 0 mm | - | - | - |
| 1787914661 | 31.67° C | 55% | 1015.3 hPa | 0 mm | - | - | - |
| 1787913461 | 30° C | 58% | 1015.7 hPa | 0 mm | - | - | - |
| 1787912861 | 28.89° C | 59% | 1016.1 hPa | 0 mm | - | - | - |
| 1787912562 | 28.89° C | 60% | 1016.1 hPa | 0 mm | - | - | - |
| 1787912262 | 28.33° C | 61% | 1016.1 hPa | 0 mm | - | - | - |
| 1787911961 | 28.33° C | 62% | 1016.2 hPa | 0 mm | - | - | - |
| 1787911661 | 27.78° C | 62% | 1016.2 hPa | 0 mm | - | - | - |
| 1787911063 | 27.78° C | 61% | 1016.2 hPa | 0 mm | - | - | - |
| 1787910461 | 27.78° C | 60% | 1016.3 hPa | 0 mm | - | - | - |
| 1787910162 | 27.78° C | 61% | 1016.6 hPa | 0 mm | - | - | - |
| 1787909861 | 27.78° C | 61% | 1016.6 hPa | 0 mm | - | - | - |
* Rain latest hour (hover to see other rain measurements)
** Current wind speed in m/s (hover to see current wind gust speed)